Aérodrome :
LOGIN :

S'inscrire | Disclaimer

   EN    FR    IT 

 










Légende :    VFR   VFR Marginal   IFR   IFR Intensif   IFR Très Intensif
Visi : 
Plafond : 
>= 8 km
>= 3000ft
5 à 8 km
1000 à 3000 ft
1500m à 5 km
500 à 1000 ft
800 à 1500m
200 à 500 ft
< 800m
< 200 ft
Symboles :   Orages  Brouillard  Fortes neiges  Fortes précipitations  Vent > 20 kt
SIGMETs :   Divers  Orages  Givrage  Turbulence  Onde Orograph.  Cendres Volcan.






- Altitude de l'aérodrome : 479 ft
- Code IATA : DOL


LFRG - Deauville

DERNIER METAR :
  • 300000Z AUTO 27010KT 9999 BKN007 OVC011 13/12 Q1011

METARs EXPIRÉS :
  • 292330Z AUTO 27010KT 9999 OVC007 13/12 Q1011
  • 292300Z AUTO 27010KT 240V300 9999 BKN008 OVC013 13/12 Q1011
  • 292230Z AUTO 26010KT 9999 BKN009 OVC054 13/12 Q1011
  • 292200Z AUTO 26010KT 9999 BKN007 OVC011 13/12 Q1011
  • 292130Z AUTO 28008KT 250V310 9999 SCT010 BKN029 OVC056 13/12 Q1011
  • 292100Z AUTO 30006KT 270V330 9999 BKN009 BKN029 BKN037 13/12 Q1011
  • 292030Z AUTO 30006KT 270V330 9999 BKN011 OVC056 13/12 Q1011
  • 292000Z AUTO 29005KT 9999 FEW006 BKN013 BKN023 13/12 Q1011 NOSIG
  • 291930Z AUTO 28005KT 9999 FEW006 OVC034 13/12 Q1010 TEMPO BKN012

Prévision TAF périmée.
ATIS : +33 2 31 65 65 36



MET'MAP, la Météo Aéronautique d'un coup d'oeil ! - Copyright ORBIFLY Décembre 2007 - Disclaimer

ORBIFLY MET'MAP TEAM :

Programmation & Développement : Alexandra Zaïnal
Sur une idée originale de : Baudouin d'Aumeries
Soutien technique & logistique : Manuel Goepfert
Assistance : Marc-Olivier Méhu




SOURCES & CREDITS :

   NOAA